Armstrong, IA (50514)

11:34 AM CDT on August 31, 2015 (GMT -0500)
Adams St. | | Change Station
CLOSE
Current Station
Personal Weather Station
Location: Armstrong, IA
Elevation: 1240 ft
Nearby Weather Stations

Elev 1240 ft 43.39 °N, 94.47 °W | Updated 12 seconds ago

Mostly Cloudy
Mostly Cloudy
77.2 °F
Feels Like 79 °F
N
5.3
Wind Variable Wind from SSE

Today
High -- | Low -- °F
--% Chance of Precip.
Yesterday
High -- | Low -- °F
Precip. -- in
6:40 AM 7:55 PM
Waning Gibbous, 95% visible
Pressure 29.96 in
Visibility 6.0 miles
Clouds Scattered Clouds 700 ft
Heat Index 79 °F
Dew Point 70 °F
Humidity 79%
Rainfall 0.00 in
Snow Depth Not available.
UV 6 out of 12
Pollen 10.90 out of 12
Air Quality Not available.
Flu Activity Not available.
SPECI KEST 311625Z AUTO 19009G20KT 6SM BR SCT007 23/21 A2996 RMK AO2 T02280206
Pressure 29.96 in
Visibility 6.0 miles
Clouds Scattered Clouds 700 ft
Heat Index 79 °F
Dew Point 70 °F
Humidity 79%
Rainfall 0.00 in
Snow Depth Not available.
UV 6 out of 12
Pollen 10.90 out of 12
Air Quality Not available.
Flu Activity Not available.
SPECI KEST 311625Z AUTO 19009G20KT 6SM BR SCT007 23/21 A2996 RMK AO2 T02280206

10-Day Weather Forecast

×

Almanac

Astronomy

Aug. 31, 2015 Rise Set
Actual Time
Civil Twilight
Nautical Twilight
Astronomical Twilight
Moon
Length of Visible Light
Length of Day
Tomorrow will be .
, % of the Moon is Illuminated

Today's Extremes

State Highs State Lows

Community

WunderPhotos

Upload Photos

1,851,302 photos uploaded!

WunderBlogs® & News

Nearby

Air Quality

  Air Quality AQ Index Pollutant
Not available.

Snow Depth

Station Depth Elevation

Earthquake Activity

City Distance Mag. Time & Date
Minimum magnitude displayed is 2.5.

Coastal Water Temperatures

Place Temperature

Stations

Nearby Weather Stations

Station Location Temp. Windchill Dew Point Humidity Wind Precip. Elev Updated Type